sensor_id;sensor_type;location;lat;lon;timestamp;P1;durP1;ratioP1;P2;durP2;ratioP2
19599;SDS011;9947;57.722;12.012;2023-06-24T00:01:33;32.33;;;12.77;;
19599;SDS011;9947;57.722;12.012;2023-06-24T00:07:04;24.00;;;13.03;;
19599;SDS011;9947;57.722;12.012;2023-06-24T00:12:01;27.00;;;11.52;;
19599;SDS011;9947;57.722;12.012;2023-06-24T00:14:29;28.57;;;12.23;;
19599;SDS011;9947;57.722;12.012;2023-06-24T00:19:43;24.23;;;11.93;;
19599;SDS011;9947;57.722;12.012;2023-06-24T00:22:13;24.57;;;11.73;;
19599;SDS011;9947;57.722;12.012;2023-06-24T00:27:16;29.93;;;11.53;;
19599;SDS011;9947;57.722;12.012;2023-06-24T00:29:50;29.93;;;12.40;;
19599;SDS011;9947;57.722;12.012;2023-06-24T00:32:20;27.67;;;11.87;;
19599;SDS011;9947;57.722;12.012;2023-06-24T00:34:52;25.30;;;11.17;;
19599;SDS011;9947;57.722;12.012;2023-06-24T00:37:23;27.60;;;12.93;;
19599;SDS011;9947;57.722;12.012;2023-06-24T00:39:51;23.77;;;11.83;;
19599;SDS011;9947;57.722;12.012;2023-06-24T00:42:23;27.43;;;11.30;;
19599;SDS011;9947;57.722;12.012;2023-06-24T00:44:51;24.17;;;12.07;;
19599;SDS011;9947;57.722;12.012;2023-06-24T00:47:26;28.63;;;12.37;;
19599;SDS011;9947;57.722;12.012;2023-06-24T00:49:56;30.00;;;11.83;;
19599;SDS011;9947;57.722;12.012;2023-06-24T00:52:29;23.63;;;11.90;;
19599;SDS011;9947;57.722;12.012;2023-06-24T00:55:03;22.73;;;12.20;;
19599;SDS011;9947;57.722;12.012;2023-06-24T01:00:04;24.20;;;11.82;;
19599;SDS011;9947;57.722;12.012;2023-06-24T01:05:08;23.48;;;11.00;;
19599;SDS011;9947;57.722;12.012;2023-06-24T01:10:22;28.40;;;12.43;;
19599;SDS011;9947;57.722;12.012;2023-06-24T01:12:49;20.43;;;10.73;;
19599;SDS011;9947;57.722;12.012;2023-06-24T01:15:21;27.57;;;11.50;;
19599;SDS011;9947;57.722;12.012;2023-06-24T01:17:52;25.90;;;11.77;;
19599;SDS011;9947;57.722;12.012;2023-06-24T01:20:33;30.53;;;11.83;;
19599;SDS011;9947;57.722;12.012;2023-06-24T01:26:12;20.50;;;10.80;;
19599;SDS011;9947;57.722;12.012;2023-06-24T01:29:04;22.60;;;11.83;;
19599;SDS011;9947;57.722;12.012;2023-06-24T01:32:01;23.83;;;11.57;;
19599;SDS011;9947;57.722;12.012;2023-06-24T01:37:10;21.70;;;11.20;;
19599;SDS011;9947;57.722;12.012;2023-06-24T01:39:47;29.00;;;11.60;;
19599;SDS011;9947;57.722;12.012;2023-06-24T01:42:18;29.30;;;11.73;;
19599;SDS011;9947;57.722;12.012;2023-06-24T01:44:49;23.17;;;11.30;;
19599;SDS011;9947;57.722;12.012;2023-06-24T01:50:03;28.43;;;10.87;;
19599;SDS011;9947;57.722;12.012;2023-06-24T01:55:02;22.80;;;11.20;;
19599;SDS011;9947;57.722;12.012;2023-06-24T02:00:10;21.52;;;11.20;;
19599;SDS011;9947;57.722;12.012;2023-06-24T02:02:41;19.37;;;10.67;;
19599;SDS011;9947;57.722;12.012;2023-06-24T02:05:16;24.50;;;11.33;;
19599;SDS011;9947;57.722;12.012;2023-06-24T02:13:39;24.43;;;11.87;;
19599;SDS011;9947;57.722;12.012;2023-06-24T02:16:10;27.43;;;12.50;;
19599;SDS011;9947;57.722;12.012;2023-06-24T02:18:44;24.63;;;11.57;;
19599;SDS011;9947;57.722;12.012;2023-06-24T02:21:23;27.50;;;12.63;;
19599;SDS011;9947;57.722;12.012;2023-06-24T02:23:54;24.03;;;12.97;;
19599;SDS011;9947;57.722;12.012;2023-06-24T02:26:27;26.77;;;12.20;;
19599;SDS011;9947;57.722;12.012;2023-06-24T02:28:56;21.97;;;11.27;;
19599;SDS011;9947;57.722;12.012;2023-06-24T02:31:26;30.60;;;12.43;;
19599;SDS011;9947;57.722;12.012;2023-06-24T02:33:54;23.20;;;12.80;;
19599;SDS011;9947;57.722;12.012;2023-06-24T02:36:27;22.87;;;12.47;;
19599;SDS011;9947;57.722;12.012;2023-06-24T02:38:58;27.80;;;13.07;;
19599;SDS011;9947;57.722;12.012;2023-06-24T02:41:27;25.37;;;12.03;;
19599;SDS011;9947;57.722;12.012;2023-06-24T02:43:55;28.10;;;13.20;;
19599;SDS011;9947;57.722;12.012;2023-06-24T02:46:28;23.73;;;12.97;;
19599;SDS011;9947;57.722;12.012;2023-06-24T02:49:00;25.57;;;12.73;;
19599;SDS011;9947;57.722;12.012;2023-06-24T02:51:38;27.73;;;13.87;;
19599;SDS011;9947;57.722;12.012;2023-06-24T02:54:08;25.43;;;12.67;;
19599;SDS011;9947;57.722;12.012;2023-06-24T02:56:38;24.50;;;12.20;;
19599;SDS011;9947;57.722;12.012;2023-06-24T02:59:11;30.00;;;13.80;;
19599;SDS011;9947;57.722;12.012;2023-06-24T03:04:04;26.20;;;13.30;;
19599;SDS011;9947;57.722;12.012;2023-06-24T03:09:07;33.43;;;14.40;;
19599;SDS011;9947;57.722;12.012;2023-06-24T03:26:12;23.77;;;12.57;;
19599;SDS011;9947;57.722;12.012;2023-06-24T03:28:49;26.93;;;13.13;;
19599;SDS011;9947;57.722;12.012;2023-06-24T03:31:17;25.50;;;13.70;;
19599;SDS011;9947;57.722;12.012;2023-06-24T03:33:51;23.80;;;12.93;;
19599;SDS011;9947;57.722;12.012;2023-06-24T03:36:19;26.27;;;13.17;;
19599;SDS011;9947;57.722;12.012;2023-06-24T03:38:54;23.70;;;13.63;;
19599;SDS011;9947;57.722;12.012;2023-06-24T03:41:40;26.23;;;12.83;;
19599;SDS011;9947;57.722;12.012;2023-06-24T03:44:10;25.17;;;12.53;;
19599;SDS011;9947;57.722;12.012;2023-06-24T03:49:03;22.85;;;11.57;;
19599;SDS011;9947;57.722;12.012;2023-06-24T03:54:01;19.92;;;11.10;;
19599;SDS011;9947;57.722;12.012;2023-06-24T03:56:31;25.40;;;11.93;;
19599;SDS011;9947;57.722;12.012;2023-06-24T03:58:59;24.63;;;11.40;;
19599;SDS011;9947;57.722;12.012;2023-06-24T04:01:29;20.43;;;12.00;;
19599;SDS011;9947;57.722;12.012;2023-06-24T04:03:58;23.10;;;11.93;;
19599;SDS011;9947;57.722;12.012;2023-06-24T04:06:30;20.50;;;12.23;;
19599;SDS011;9947;57.722;12.012;2023-06-24T04:09:06;24.60;;;11.67;;
19599;SDS011;9947;57.722;12.012;2023-06-24T04:11:44;18.87;;;11.43;;
19599;SDS011;9947;57.722;12.012;2023-06-24T04:14:18;23.90;;;11.93;;
19599;SDS011;9947;57.722;12.012;2023-06-24T04:16:46;26.30;;;11.63;;
19599;SDS011;9947;57.722;12.012;2023-06-24T04:19:17;21.60;;;10.93;;
19599;SDS011;9947;57.722;12.012;2023-06-24T04:21:47;20.57;;;10.87;;
19599;SDS011;9947;57.722;12.012;2023-06-24T04:24:15;18.57;;;10.40;;
19599;SDS011;9947;57.722;12.012;2023-06-24T04:26:50;24.60;;;10.93;;
19599;SDS011;9947;57.722;12.012;2023-06-24T04:29:18;25.27;;;11.00;;
19599;SDS011;9947;57.722;12.012;2023-06-24T04:31:48;22.27;;;10.40;;
19599;SDS011;9947;57.722;12.012;2023-06-24T04:34:20;16.60;;;9.07;;
19599;SDS011;9947;57.722;12.012;2023-06-24T04:36:58;22.53;;;9.63;;
19599;SDS011;9947;57.722;12.012;2023-06-24T04:39:26;18.60;;;10.27;;
19599;SDS011;9947;57.722;12.012;2023-06-24T04:42:05;18.30;;;9.60;;
19599;SDS011;9947;57.722;12.012;2023-06-24T04:44:50;19.47;;;9.50;;
19599;SDS011;9947;57.722;12.012;2023-06-24T04:47:18;14.00;;;9.50;;
19599;SDS011;9947;57.722;12.012;2023-06-24T04:49:46;18.17;;;9.63;;
19599;SDS011;9947;57.722;12.012;2023-06-24T04:52:19;21.73;;;9.90;;
19599;SDS011;9947;57.722;12.012;2023-06-24T04:54:49;21.13;;;10.00;;
19599;SDS011;9947;57.722;12.012;2023-06-24T04:57:26;17.90;;;9.57;;
19599;SDS011;9947;57.722;12.012;2023-06-24T04:59:57;19.53;;;8.67;;
19599;SDS011;9947;57.722;12.012;2023-06-24T05:02:37;17.93;;;9.03;;
19599;SDS011;9947;57.722;12.012;2023-06-24T05:05:11;16.20;;;8.90;;
19599;SDS011;9947;57.722;12.012;2023-06-24T05:10:04;17.50;;;9.33;;
19599;SDS011;9947;57.722;12.012;2023-06-24T05:17:48;15.87;;;8.30;;
19599;SDS011;9947;57.722;12.012;2023-06-24T05:20:17;21.63;;;8.53;;
19599;SDS011;9947;57.722;12.012;2023-06-24T05:22:48;21.03;;;8.47;;
19599;SDS011;9947;57.722;12.012;2023-06-24T05:25:16;14.90;;;8.10;;
19599;SDS011;9947;57.722;12.012;2023-06-24T05:27:45;18.50;;;8.60;;
19599;SDS011;9947;57.722;12.012;2023-06-24T05:30:21;18.70;;;8.57;;
19599;SDS011;9947;57.722;12.012;2023-06-24T05:32:51;16.63;;;9.07;;
19599;SDS011;9947;57.722;12.012;2023-06-24T05:35:20;16.13;;;8.23;;
19599;SDS011;9947;57.722;12.012;2023-06-24T05:37:51;17.10;;;8.17;;
19599;SDS011;9947;57.722;12.012;2023-06-24T05:40:21;20.73;;;8.13;;
19599;SDS011;9947;57.722;12.012;2023-06-24T05:42:51;18.60;;;9.27;;
19599;SDS011;9947;57.722;12.012;2023-06-24T05:45:23;13.20;;;8.20;;
19599;SDS011;9947;57.722;12.012;2023-06-24T05:47:53;16.67;;;8.47;;
19599;SDS011;9947;57.722;12.012;2023-06-24T05:50:24;16.10;;;8.10;;
19599;SDS011;9947;57.722;12.012;2023-06-24T05:52:52;16.80;;;8.30;;
19599;SDS011;9947;57.722;12.012;2023-06-24T05:55:22;16.97;;;7.43;;
19599;SDS011;9947;57.722;12.012;2023-06-24T05:57:52;12.57;;;7.27;;
19599;SDS011;9947;57.722;12.012;2023-06-24T06:00:22;12.13;;;7.20;;
19599;SDS011;9947;57.722;12.012;2023-06-24T06:02:54;12.50;;;6.93;;
19599;SDS011;9947;57.722;12.012;2023-06-24T06:05:25;14.05;;;6.80;;
19599;SDS011;9947;57.722;12.012;2023-06-24T06:07:53;12.18;;;7.00;;
19599;SDS011;9947;57.722;12.012;2023-06-24T06:10:21;12.50;;;6.20;;
19599;SDS011;9947;57.722;12.012;2023-06-24T06:13:02;13.77;;;7.15;;
19599;SDS011;9947;57.722;12.012;2023-06-24T06:15:32;17.65;;;6.40;;
19599;SDS011;9947;57.722;12.012;2023-06-24T06:18:06;12.57;;;5.68;;
19599;SDS011;9947;57.722;12.012;2023-06-24T06:20:42;12.32;;;5.78;;
19599;SDS011;9947;57.722;12.012;2023-06-24T06:23:15;11.73;;;6.15;;
19599;SDS011;9947;57.722;12.012;2023-06-24T06:25:48;15.88;;;6.72;;
19599;SDS011;9947;57.722;12.012;2023-06-24T06:28:23;10.95;;;6.00;;
19599;SDS011;9947;57.722;12.012;2023-06-24T06:31:23;12.48;;;5.70;;
19599;SDS011;9947;57.722;12.012;2023-06-24T06:33:55;11.95;;;5.68;;
19599;SDS011;9947;57.722;12.012;2023-06-24T06:36:22;11.50;;;6.40;;
19599;SDS011;9947;57.722;12.012;2023-06-24T06:38:54;14.18;;;6.00;;
19599;SDS011;9947;57.722;12.012;2023-06-24T06:41:23;12.85;;;5.93;;
19599;SDS011;9947;57.722;12.012;2023-06-24T06:43:52;14.85;;;6.25;;
19599;SDS011;9947;57.722;12.012;2023-06-24T06:49:16;16.30;;;6.13;;
19599;SDS011;9947;57.722;12.012;2023-06-24T06:51:53;14.50;;;6.45;;
19599;SDS011;9947;57.722;12.012;2023-06-24T06:54:31;11.43;;;6.47;;
19599;SDS011;9947;57.722;12.012;2023-06-24T06:57:02;12.02;;;6.18;;
19599;SDS011;9947;57.722;12.012;2023-06-24T07:01:59;12.57;;;5.78;;
19599;SDS011;9947;57.722;12.012;2023-06-24T07:04:36;12.20;;;6.13;;
19599;SDS011;9947;57.722;12.012;2023-06-24T07:07:05;12.82;;;6.68;;
19599;SDS011;9947;57.722;12.012;2023-06-24T07:09:37;11.30;;;6.20;;
19599;SDS011;9947;57.722;12.012;2023-06-24T07:12:12;12.88;;;6.45;;
19599;SDS011;9947;57.722;12.012;2023-06-24T07:14:51;14.48;;;6.18;;
19599;SDS011;9947;57.722;12.012;2023-06-24T07:17:23;10.45;;;5.90;;
19599;SDS011;9947;57.722;12.012;2023-06-24T07:20:00;12.30;;;6.32;;
19599;SDS011;9947;57.722;12.012;2023-06-24T07:22:29;11.07;;;6.25;;
19599;SDS011;9947;57.722;12.012;2023-06-24T07:25:01;13.19;;;6.36;;
19599;SDS011;9947;57.722;12.012;2023-06-24T07:27:30;11.68;;;6.30;;
19599;SDS011;9947;57.722;12.012;2023-06-24T07:30:10;10.57;;;6.53;;
19599;SDS011;9947;57.722;12.012;2023-06-24T07:32:41;14.70;;;6.80;;
19599;SDS011;9947;57.722;12.012;2023-06-24T07:35:21;9.88;;;6.30;;
19599;SDS011;9947;57.722;12.012;2023-06-24T07:37:52;15.75;;;6.03;;
19599;SDS011;9947;57.722;12.012;2023-06-24T07:40:24;11.52;;;6.15;;
19599;SDS011;9947;57.722;12.012;2023-06-24T07:42:58;12.43;;;5.95;;
19599;SDS011;9947;57.722;12.012;2023-06-24T07:45:28;13.43;;;6.45;;
19599;SDS011;9947;57.722;12.012;2023-06-24T07:47:56;13.65;;;5.90;;
19599;SDS011;9947;57.722;12.012;2023-06-24T07:50:28;16.15;;;6.32;;
19599;SDS011;9947;57.722;12.012;2023-06-24T07:52:57;9.77;;;5.93;;
19599;SDS011;9947;57.722;12.012;2023-06-24T07:55:28;12.93;;;5.85;;
19599;SDS011;9947;57.722;12.012;2023-06-24T07:58:05;12.07;;;6.20;;
19599;SDS011;9947;57.722;12.012;2023-06-24T08:00:37;13.27;;;6.15;;
19599;SDS011;9947;57.722;12.012;2023-06-24T08:03:06;15.32;;;6.03;;
19599;SDS011;9947;57.722;12.012;2023-06-24T08:08:09;11.65;;;5.95;;
19599;SDS011;9947;57.722;12.012;2023-06-24T08:10:47;11.68;;;6.07;;
19599;SDS011;9947;57.722;12.012;2023-06-24T08:13:16;14.10;;;6.97;;
19599;SDS011;9947;57.722;12.012;2023-06-24T08:15:44;10.27;;;5.88;;
19599;SDS011;9947;57.722;12.012;2023-06-24T08:18:13;13.48;;;6.63;;
19599;SDS011;9947;57.722;12.012;2023-06-24T08:23:27;14.18;;;6.65;;
19599;SDS011;9947;57.722;12.012;2023-06-24T08:25:58;14.13;;;6.65;;
19599;SDS011;9947;57.722;12.012;2023-06-24T08:28:27;11.80;;;6.53;;
19599;SDS011;9947;57.722;12.012;2023-06-24T08:30:59;13.98;;;6.75;;
19599;SDS011;9947;57.722;12.012;2023-06-24T08:33:28;10.43;;;6.45;;
19599;SDS011;9947;57.722;12.012;2023-06-24T08:36:01;11.35;;;6.82;;
19599;SDS011;9947;57.722;12.012;2023-06-24T08:41:03;15.00;;;7.03;;
19599;SDS011;9947;57.722;12.012;2023-06-24T08:43:46;12.10;;;5.78;;
19599;SDS011;9947;57.722;12.012;2023-06-24T08:46:18;12.52;;;6.90;;
19599;SDS011;9947;57.722;12.012;2023-06-24T08:48:53;14.45;;;7.07;;
19599;SDS011;9947;57.722;12.012;2023-06-24T08:51:31;14.20;;;6.60;;
19599;SDS011;9947;57.722;12.012;2023-06-24T08:54:09;12.20;;;6.53;;
19599;SDS011;9947;57.722;12.012;2023-06-24T08:56:46;13.82;;;6.93;;
19599;SDS011;9947;57.722;12.012;2023-06-24T08:59:14;14.32;;;7.03;;
19599;SDS011;9947;57.722;12.012;2023-06-24T09:01:47;14.27;;;6.85;;
19599;SDS011;9947;57.722;12.012;2023-06-24T09:04:20;13.85;;;6.78;;
19599;SDS011;9947;57.722;12.012;2023-06-24T09:06:49;16.55;;;6.78;;
19599;SDS011;9947;57.722;12.012;2023-06-24T09:09:19;14.77;;;6.43;;
19599;SDS011;9947;57.722;12.012;2023-06-24T09:11:58;13.05;;;5.97;;
19599;SDS011;9947;57.722;12.012;2023-06-24T09:14:26;13.00;;;6.60;;
19599;SDS011;9947;57.722;12.012;2023-06-24T09:16:59;16.27;;;7.10;;
19599;SDS011;9947;57.722;12.012;2023-06-24T09:19:30;13.05;;;6.68;;
19599;SDS011;9947;57.722;12.012;2023-06-24T09:22:22;12.05;;;6.85;;
19599;SDS011;9947;57.722;12.012;2023-06-24T09:24:53;13.32;;;6.82;;
19599;SDS011;9947;57.722;12.012;2023-06-24T09:27:30;16.13;;;7.10;;
19599;SDS011;9947;57.722;12.012;2023-06-24T09:30:00;9.65;;;6.00;;
19599;SDS011;9947;57.722;12.012;2023-06-24T09:32:45;14.90;;;7.00;;
19599;SDS011;9947;57.722;12.012;2023-06-24T09:35:16;14.43;;;6.93;;
19599;SDS011;9947;57.722;12.012;2023-06-24T09:37:52;14.20;;;6.75;;
19599;SDS011;9947;57.722;12.012;2023-06-24T09:40:23;11.63;;;6.78;;
19599;SDS011;9947;57.722;12.012;2023-06-24T09:48:18;14.93;;;6.45;;
19599;SDS011;9947;57.722;12.012;2023-06-24T09:53:15;14.65;;;6.45;;
19599;SDS011;9947;57.722;12.012;2023-06-24T09:55:45;12.73;;;6.75;;
19599;SDS011;9947;57.722;12.012;2023-06-24T09:58:23;12.93;;;5.85;;
19599;SDS011;9947;57.722;12.012;2023-06-24T10:00:59;13.48;;;5.80;;
19599;SDS011;9947;57.722;12.012;2023-06-24T10:03:32;12.23;;;5.90;;
19599;SDS011;9947;57.722;12.012;2023-06-24T10:11:20;12.20;;;6.32;;
19599;SDS011;9947;57.722;12.012;2023-06-24T10:13:56;14.13;;;6.50;;
19599;SDS011;9947;57.722;12.012;2023-06-24T10:16:23;13.95;;;6.10;;
19599;SDS011;9947;57.722;12.012;2023-06-24T10:18:52;10.88;;;6.38;;
19599;SDS011;9947;57.722;12.012;2023-06-24T10:21:46;11.30;;;6.03;;
19599;SDS011;9947;57.722;12.012;2023-06-24T10:24:31;17.83;;;6.45;;
19599;SDS011;9947;57.722;12.012;2023-06-24T10:27:01;14.15;;;6.22;;
19599;SDS011;9947;57.722;12.012;2023-06-24T10:29:44;13.38;;;6.47;;
19599;SDS011;9947;57.722;12.012;2023-06-24T10:32:16;15.82;;;5.88;;
19599;SDS011;9947;57.722;12.012;2023-06-24T10:34:53;13.05;;;5.85;;
19599;SDS011;9947;57.722;12.012;2023-06-24T10:37:30;13.13;;;5.85;;
19599;SDS011;9947;57.722;12.012;2023-06-24T10:40:01;10.80;;;5.93;;
19599;SDS011;9947;57.722;12.012;2023-06-24T10:42:29;9.98;;;5.53;;
19599;SDS011;9947;57.722;12.012;2023-06-24T10:45:21;9.15;;;5.43;;
19599;SDS011;9947;57.722;12.012;2023-06-24T10:47:53;14.68;;;6.07;;
19599;SDS011;9947;57.722;12.012;2023-06-24T10:50:31;18.23;;;5.85;;
19599;SDS011;9947;57.722;12.012;2023-06-24T10:53:07;10.90;;;5.47;;
19599;SDS011;9947;57.722;12.012;2023-06-24T10:58:08;11.68;;;5.03;;
19599;SDS011;9947;57.722;12.012;2023-06-24T11:03:42;13.13;;;4.95;;
19599;SDS011;9947;57.722;12.012;2023-06-24T11:06:12;11.18;;;4.90;;
19599;SDS011;9947;57.722;12.012;2023-06-24T11:11:23;10.65;;;4.70;;
19599;SDS011;9947;57.722;12.012;2023-06-24T11:13:53;10.23;;;4.82;;
19599;SDS011;9947;57.722;12.012;2023-06-24T11:16:23;10.82;;;5.18;;
19599;SDS011;9947;57.722;12.012;2023-06-24T11:19:05;9.20;;;4.45;;
19599;SDS011;9947;57.722;12.012;2023-06-24T11:24:05;12.77;;;5.35;;
19599;SDS011;9947;57.722;12.012;2023-06-24T11:31:44;11.02;;;5.32;;
19599;SDS011;9947;57.722;12.012;2023-06-24T11:34:20;11.35;;;5.68;;
19599;SDS011;9947;57.722;12.012;2023-06-24T11:36:51;15.43;;;5.97;;
19599;SDS011;9947;57.722;12.012;2023-06-24T11:39:21;13.27;;;5.93;;
19599;SDS011;9947;57.722;12.012;2023-06-24T11:41:50;11.18;;;5.15;;
19599;SDS011;9947;57.722;12.012;2023-06-24T11:44:19;11.27;;;5.68;;
19599;SDS011;9947;57.722;12.012;2023-06-24T11:46:52;11.25;;;5.10;;
19599;SDS011;9947;57.722;12.012;2023-06-24T11:49:20;10.45;;;4.97;;
19599;SDS011;9947;57.722;12.012;2023-06-24T11:51:48;10.80;;;5.10;;
19599;SDS011;9947;57.722;12.012;2023-06-24T11:54:19;14.25;;;5.22;;
19599;SDS011;9947;57.722;12.012;2023-06-24T11:56:55;11.25;;;5.65;;
19599;SDS011;9947;57.722;12.012;2023-06-24T11:59:28;13.93;;;5.30;;
19599;SDS011;9947;57.722;12.012;2023-06-24T12:02:03;13.18;;;5.50;;
19599;SDS011;9947;57.722;12.012;2023-06-24T12:07:01;11.20;;;5.20;;
19599;SDS011;9947;57.722;12.012;2023-06-24T12:09:30;12.70;;;5.57;;
19599;SDS011;9947;57.722;12.012;2023-06-24T12:12:04;15.38;;;5.05;;
19599;SDS011;9947;57.722;12.012;2023-06-24T12:14:37;16.98;;;5.70;;
19599;SDS011;9947;57.722;12.012;2023-06-24T12:17:13;11.55;;;5.40;;
19599;SDS011;9947;57.722;12.012;2023-06-24T12:19:44;14.73;;;5.25;;
19599;SDS011;9947;57.722;12.012;2023-06-24T12:22:15;16.90;;;5.75;;
19599;SDS011;9947;57.722;12.012;2023-06-24T12:24:43;14.10;;;5.97;;
19599;SDS011;9947;57.722;12.012;2023-06-24T12:27:24;13.20;;;5.47;;
19599;SDS011;9947;57.722;12.012;2023-06-24T12:29:53;12.85;;;6.05;;
19599;SDS011;9947;57.722;12.012;2023-06-24T12:32:26;15.47;;;5.67;;
19599;SDS011;9947;57.722;12.012;2023-06-24T12:34:59;12.05;;;6.22;;
19599;SDS011;9947;57.722;12.012;2023-06-24T12:37:29;14.77;;;5.40;;
19599;SDS011;9947;57.722;12.012;2023-06-24T12:39:58;11.63;;;5.27;;
19599;SDS011;9947;57.722;12.012;2023-06-24T12:42:25;17.37;;;6.20;;
19599;SDS011;9947;57.722;12.012;2023-06-24T12:44:56;18.23;;;5.47;;
19599;SDS011;9947;57.722;12.012;2023-06-24T12:47:35;14.90;;;5.20;;
19599;SDS011;9947;57.722;12.012;2023-06-24T12:50:15;13.00;;;5.43;;
19599;SDS011;9947;57.722;12.012;2023-06-24T12:55:08;10.30;;;5.00;;
19599;SDS011;9947;57.722;12.012;2023-06-24T12:57:39;11.40;;;5.23;;
19599;SDS011;9947;57.722;12.012;2023-06-24T13:00:11;11.57;;;5.18;;
19599;SDS011;9947;57.722;12.012;2023-06-24T13:02:53;14.68;;;5.65;;
19599;SDS011;9947;57.722;12.012;2023-06-24T13:05:25;13.55;;;5.45;;
19599;SDS011;9947;57.722;12.012;2023-06-24T13:07:57;14.00;;;4.82;;
19599;SDS011;9947;57.722;12.012;2023-06-24T13:10:46;11.77;;;5.00;;
19599;SDS011;9947;57.722;12.012;2023-06-24T13:13:17;10.48;;;4.80;;
19599;SDS011;9947;57.722;12.012;2023-06-24T13:15:50;13.50;;;4.90;;
19599;SDS011;9947;57.722;12.012;2023-06-24T13:18:21;12.18;;;5.43;;
19599;SDS011;9947;57.722;12.012;2023-06-24T13:20:55;10.60;;;5.20;;
19599;SDS011;9947;57.722;12.012;2023-06-24T13:23:24;10.88;;;5.07;;
19599;SDS011;9947;57.722;12.012;2023-06-24T13:25:55;7.60;;;4.63;;
19599;SDS011;9947;57.722;12.012;2023-06-24T13:28:27;12.87;;;5.30;;
19599;SDS011;9947;57.722;12.012;2023-06-24T13:30:58;13.45;;;4.88;;
19599;SDS011;9947;57.722;12.012;2023-06-24T13:33:34;10.93;;;4.93;;
19599;SDS011;9947;57.722;12.012;2023-06-24T13:36:03;12.80;;;5.33;;
19599;SDS011;9947;57.722;12.012;2023-06-24T13:38:35;14.73;;;6.17;;
19599;SDS011;9947;57.722;12.012;2023-06-24T13:41:07;13.93;;;5.50;;
19599;SDS011;9947;57.722;12.012;2023-06-24T13:46:03;11.25;;;5.80;;
19599;SDS011;9947;57.722;12.012;2023-06-24T13:51:06;15.90;;;6.60;;
19599;SDS011;9947;57.722;12.012;2023-06-24T13:53:47;13.27;;;5.97;;
19599;SDS011;9947;57.722;12.012;2023-06-24T13:56:25;13.27;;;5.85;;
19599;SDS011;9947;57.722;12.012;2023-06-24T13:58:54;13.77;;;5.82;;
19599;SDS011;9947;57.722;12.012;2023-06-24T14:01:23;11.15;;;5.80;;
19599;SDS011;9947;57.722;12.012;2023-06-24T14:03:54;14.25;;;6.18;;
19599;SDS011;9947;57.722;12.012;2023-06-24T14:06:26;11.98;;;5.40;;
19599;SDS011;9947;57.722;12.012;2023-06-24T14:09:00;10.32;;;5.47;;
19599;SDS011;9947;57.722;12.012;2023-06-24T14:11:28;13.23;;;6.00;;
19599;SDS011;9947;57.722;12.012;2023-06-24T14:13:55;11.90;;;6.20;;
19599;SDS011;9947;57.722;12.012;2023-06-24T14:16:24;14.23;;;5.90;;
19599;SDS011;9947;57.722;12.012;2023-06-24T14:18:53;12.38;;;6.00;;
19599;SDS011;9947;57.722;12.012;2023-06-24T14:23:59;16.85;;;7.10;;
19599;SDS011;9947;57.722;12.012;2023-06-24T14:26:32;16.65;;;6.03;;
19599;SDS011;9947;57.722;12.012;2023-06-24T14:29:00;16.58;;;6.72;;
19599;SDS011;9947;57.722;12.012;2023-06-24T14:42:15;15.93;;;6.78;;
19599;SDS011;9947;57.722;12.012;2023-06-24T14:47:17;12.70;;;5.70;;
19599;SDS011;9947;57.722;12.012;2023-06-24T14:49:56;12.35;;;5.00;;
19599;SDS011;9947;57.722;12.012;2023-06-24T14:52:25;12.48;;;4.68;;
19599;SDS011;9947;57.722;12.012;2023-06-24T14:54:55;9.75;;;4.70;;
19599;SDS011;9947;57.722;12.012;2023-06-24T15:00:11;9.80;;;4.95;;
19599;SDS011;9947;57.722;12.012;2023-06-24T15:05:08;11.90;;;5.15;;
19599;SDS011;9947;57.722;12.012;2023-06-24T15:07:41;10.98;;;4.78;;
19599;SDS011;9947;57.722;12.012;2023-06-24T15:10:12;11.23;;;4.82;;
19599;SDS011;9947;57.722;12.012;2023-06-24T15:12:54;11.55;;;4.72;;
19599;SDS011;9947;57.722;12.012;2023-06-24T15:15:26;9.80;;;4.30;;
19599;SDS011;9947;57.722;12.012;2023-06-24T15:17:54;8.88;;;4.53;;
19599;SDS011;9947;57.722;12.012;2023-06-24T15:20:25;10.93;;;4.40;;
19599;SDS011;9947;57.722;12.012;2023-06-24T15:22:58;9.57;;;6.15;;
19599;SDS011;9947;57.722;12.012;2023-06-24T15:25:32;12.55;;;5.28;;
19599;SDS011;9947;57.722;12.012;2023-06-24T15:28:06;8.63;;;4.97;;
19599;SDS011;9947;57.722;12.012;2023-06-24T15:30:42;10.65;;;5.00;;
19599;SDS011;9947;57.722;12.012;2023-06-24T15:33:14;8.23;;;4.82;;
19599;SDS011;9947;57.722;12.012;2023-06-24T15:38:07;10.32;;;5.25;;
19599;SDS011;9947;57.722;12.012;2023-06-24T15:40:48;11.20;;;5.22;;
19599;SDS011;9947;57.722;12.012;2023-06-24T15:46:11;11.35;;;4.93;;
19599;SDS011;9947;57.722;12.012;2023-06-24T15:48:42;10.10;;;5.03;;
19599;SDS011;9947;57.722;12.012;2023-06-24T15:54:01;11.45;;;5.75;;
19599;SDS011;9947;57.722;12.012;2023-06-24T15:56:43;11.48;;;5.85;;
19599;SDS011;9947;57.722;12.012;2023-06-24T16:02:08;9.53;;;5.50;;
19599;SDS011;9947;57.722;12.012;2023-06-24T16:04:43;17.33;;;5.97;;
19599;SDS011;9947;57.722;12.012;2023-06-24T16:07:18;14.87;;;5.80;;
19599;SDS011;9947;57.722;12.012;2023-06-24T16:10:06;10.93;;;5.63;;
19599;SDS011;9947;57.722;12.012;2023-06-24T16:12:46;12.48;;;5.63;;
19599;SDS011;9947;57.722;12.012;2023-06-24T16:15:19;14.07;;;6.60;;
19599;SDS011;9947;57.722;12.012;2023-06-24T16:18:14;9.70;;;6.40;;
19599;SDS011;9947;57.722;12.012;2023-06-24T16:20:54;9.57;;;6.10;;
19599;SDS011;9947;57.722;12.012;2023-06-24T16:26:02;10.70;;;4.83;;
19599;SDS011;9947;57.722;12.012;2023-06-24T16:28:45;9.57;;;4.93;;
19599;SDS011;9947;57.722;12.012;2023-06-24T16:31:49;10.73;;;5.70;;
19599;SDS011;9947;57.722;12.012;2023-06-24T16:37:02;10.30;;;5.00;;
19599;SDS011;9947;57.722;12.012;2023-06-24T16:39:32;11.10;;;5.70;;
19599;SDS011;9947;57.722;12.012;2023-06-24T16:42:02;11.02;;;5.15;;
19599;SDS011;9947;57.722;12.012;2023-06-24T16:44:51;8.70;;;4.88;;
19599;SDS011;9947;57.722;12.012;2023-06-24T16:52:49;10.67;;;4.70;;
19599;SDS011;9947;57.722;12.012;2023-06-24T16:55:31;8.30;;;4.88;;
19599;SDS011;9947;57.722;12.012;2023-06-24T16:58:12;8.60;;;4.72;;
19599;SDS011;9947;57.722;12.012;2023-06-24T17:00:47;17.33;;;5.43;;
19599;SDS011;9947;57.722;12.012;2023-06-24T17:03:25;9.43;;;4.95;;
19599;SDS011;9947;57.722;12.012;2023-06-24T17:06:13;8.93;;;4.70;;
19599;SDS011;9947;57.722;12.012;2023-06-24T17:08:54;9.17;;;5.40;;
19599;SDS011;9947;57.722;12.012;2023-06-24T17:11:28;11.30;;;5.03;;
19599;SDS011;9947;57.722;12.012;2023-06-24T17:13:58;13.65;;;5.22;;
19599;SDS011;9947;57.722;12.012;2023-06-24T17:16:29;14.43;;;5.13;;
19599;SDS011;9947;57.722;12.012;2023-06-24T17:19:13;11.50;;;5.23;;
19599;SDS011;9947;57.722;12.012;2023-06-24T17:24:12;12.13;;;5.25;;
19599;SDS011;9947;57.722;12.012;2023-06-24T17:26:44;9.93;;;4.93;;
19599;SDS011;9947;57.722;12.012;2023-06-24T17:29:17;10.73;;;5.03;;
19599;SDS011;9947;57.722;12.012;2023-06-24T17:34:51;12.83;;;5.60;;
19599;SDS011;9947;57.722;12.012;2023-06-24T17:37:28;13.90;;;5.85;;
19599;SDS011;9947;57.722;12.012;2023-06-24T17:42:32;9.80;;;5.30;;
19599;SDS011;9947;57.722;12.012;2023-06-24T17:45:10;9.90;;;5.10;;
19599;SDS011;9947;57.722;12.012;2023-06-24T17:47:59;16.38;;;6.20;;
19599;SDS011;9947;57.722;12.012;2023-06-24T17:50:35;14.13;;;5.72;;
19599;SDS011;9947;57.722;12.012;2023-06-24T17:53:06;11.45;;;5.47;;
19599;SDS011;9947;57.722;12.012;2023-06-24T17:55:36;12.98;;;5.70;;
19599;SDS011;9947;57.722;12.012;2023-06-24T17:58:30;14.82;;;6.00;;
19599;SDS011;9947;57.722;12.012;2023-06-24T18:01:07;11.90;;;5.50;;